createdAt,value
2022-08-05T00:06:04.767Z,23.98
2022-08-05T00:21:46.683Z,23.81
2022-08-05T00:53:11.356Z,23.58
2022-08-05T01:08:54.189Z,23.5
2022-08-05T01:24:36.608Z,23.57
2022-08-05T01:40:18.669Z,23.4
2022-08-05T01:56:00.787Z,23.15
2022-08-05T02:11:43.640Z,22.82
2022-08-05T02:12:30.923Z,22.96
2022-08-05T02:28:13.087Z,22.63
2022-08-05T02:43:55.378Z,22.3
2022-08-05T02:59:37.538Z,21.99
2022-08-05T03:15:19.947Z,21.68
2022-08-05T03:31:02.315Z,21.54
2022-08-05T03:46:45.146Z,21.46
2022-08-05T04:02:27.449Z,21.37
2022-08-05T04:18:09.932Z,21.4
2022-08-05T04:33:52.784Z,21.57
2022-08-05T04:49:35.565Z,21.99
2022-08-05T05:05:17.916Z,22.57
2022-08-05T05:21:00.750Z,23.32
2022-08-05T05:36:43.289Z,24.01
2022-08-05T05:52:25.667Z,24.31
2022-08-05T06:08:08.456Z,24.73
2022-08-05T06:23:50.677Z,25.05
2022-08-05T06:39:33.547Z,25.62
2022-08-05T06:55:16.249Z,26.33
2022-08-05T07:10:58.286Z,26.69
2022-08-05T07:26:40.243Z,27.33
2022-08-05T07:42:22.682Z,27.84
2022-08-05T07:58:05.176Z,27.84
2022-08-05T08:13:48.013Z,27.79
2022-08-05T08:29:30.927Z,27.59
2022-08-05T08:45:16.163Z,28.18
2022-08-05T09:00:56.138Z,27.1
2022-08-05T09:16:39.001Z,25.78
2022-08-05T09:32:29.911Z,25.48
2022-08-05T09:48:04.291Z,25.45
2022-08-05T10:03:46.210Z,25.44
2022-08-05T10:19:28.501Z,24.83
2022-08-05T10:35:10.567Z,24.24
2022-08-05T10:50:53.064Z,24.29
2022-08-05T11:06:35.194Z,24.3
2022-08-05T11:22:17.601Z,23.93
2022-08-05T11:38:14.207Z,26.02
2022-08-05T11:53:42.292Z,28.89
2022-08-05T12:09:25.015Z,29.79
2022-08-05T12:25:07.613Z,31.87
2022-08-05T12:40:49.824Z,34.34
2022-08-05T12:56:31.751Z,36.15
2022-08-05T13:12:13.936Z,37.48
2022-08-05T13:27:56.642Z,37.84
2022-08-05T13:43:39.245Z,35.49
2022-08-05T13:59:21.515Z,33.09
2022-08-05T14:15:03.846Z,31.32
2022-08-05T14:30:46.328Z,32.33
2022-08-05T14:46:28.616Z,30.26
2022-08-05T15:02:10.972Z,29.16
2022-08-05T15:17:53.351Z,28.25
2022-08-05T15:33:35.276Z,27.52
2022-08-05T15:49:17.490Z,26.93
2022-08-05T16:05:00.219Z,26.59
2022-08-05T16:20:42.791Z,26.27
2022-08-05T16:36:25.205Z,25.57
2022-08-05T16:52:07.833Z,25.04
2022-08-05T17:07:50.035Z,24.65
2022-08-05T17:23:31.974Z,24.5
2022-08-05T17:39:14.927Z,23.62
2022-08-05T17:54:57.800Z,22.6
2022-08-05T18:10:40.750Z,21.68
2022-08-05T18:26:23.193Z,20.99
2022-08-05T18:42:05.699Z,20.49
2022-08-05T18:57:48.355Z,20.15
2022-08-05T19:13:35.505Z,19.79
2022-08-05T19:29:13.661Z,19.49
2022-08-05T19:44:56.540Z,19.35
2022-08-05T20:00:38.820Z,19.26
2022-08-05T20:16:21.345Z,19.14
2022-08-05T20:32:03.676Z,18.83
2022-08-05T20:47:45.943Z,18.66
2022-08-05T21:03:28.886Z,18.54
2022-08-05T21:19:11.044Z,18.43
2022-08-05T21:34:53.348Z,18.37
2022-08-05T21:50:36.304Z,18.14
2022-08-05T22:06:18.531Z,17.91
2022-08-05T22:22:00.929Z,17.85
2022-08-05T22:53:26.108Z,17.54
2022-08-05T23:09:08.288Z,17.46
2022-08-05T23:24:51.156Z,17.29
2022-08-05T23:40:33.799Z,17
2022-08-05T23:56:15.824Z,16.68
